createdAt,value
2023-03-19T00:01:22.607Z,7.30
2023-03-19T00:03:52.089Z,7.30
2023-03-19T00:06:22.752Z,7.30
2023-03-19T00:08:52.217Z,7.20
2023-03-19T00:11:21.654Z,7.20
2023-03-19T00:13:51.565Z,7.20
2023-03-19T00:16:21.328Z,7.20
2023-03-19T00:18:50.795Z,7.10
2023-03-19T00:21:20.626Z,7.10
2023-03-19T00:23:50.030Z,7.00
2023-03-19T00:26:19.549Z,7.00
2023-03-19T00:28:48.908Z,7.00
2023-03-19T00:31:18.287Z,7.00
2023-03-19T00:33:47.585Z,6.90
2023-03-19T00:36:17.371Z,6.90
2023-03-19T00:38:48.208Z,6.90
2023-03-19T00:41:18.924Z,6.90
2023-03-19T00:43:48.442Z,6.90
2023-03-19T00:46:17.900Z,6.90
2023-03-19T00:48:47.305Z,6.80
2023-03-19T00:51:16.805Z,6.80
2023-03-19T00:53:46.206Z,6.80
2023-03-19T00:56:18.350Z,6.80
2023-03-19T00:58:48.430Z,6.80
2023-03-19T01:01:19.780Z,6.80
2023-03-19T01:03:49.801Z,6.80
2023-03-19T01:06:19.292Z,6.80
2023-03-19T01:08:49.937Z,6.80
2023-03-19T01:11:20.003Z,6.70
2023-03-19T01:13:49.374Z,6.70
2023-03-19T01:16:18.923Z,6.80
2023-03-19T01:18:48.412Z,6.80
2023-03-19T01:21:18.555Z,6.80
2023-03-19T01:23:51.317Z,6.80
2023-03-19T01:26:21.402Z,6.80
2023-03-19T01:28:52.933Z,6.80
2023-03-19T01:31:23.678Z,6.80
2023-03-19T01:34:00.571Z,6.90
2023-03-19T01:36:40.700Z,6.90
2023-03-19T01:39:11.615Z,6.90
2023-03-19T01:41:41.118Z,6.90
2023-03-19T01:44:32.819Z,6.90
2023-03-19T01:47:32.761Z,6.90
2023-03-19T01:50:42.422Z,6.90
2023-03-19T01:53:18.364Z,6.90
2023-03-19T01:55:50.400Z,7.00
2023-03-19T01:58:30.917Z,7.00
2023-03-19T02:01:05.113Z,7.00
2023-03-19T02:03:38.265Z,7.00
2023-03-19T02:06:16.753Z,7.00
2023-03-19T02:08:47.469Z,7.00
2023-03-19T02:11:17.315Z,7.00
2023-03-19T02:13:47.361Z,7.00
2023-03-19T02:16:16.963Z,7.00
2023-03-19T02:18:46.664Z,7.00
2023-03-19T02:21:21.806Z,7.00
2023-03-19T02:23:54.535Z,7.00
2023-03-19T02:26:28.753Z,7.00
2023-03-19T02:28:59.832Z,7.00
2023-03-19T02:31:31.397Z,7.10
2023-03-19T02:34:02.008Z,7.10
2023-03-19T02:36:40.498Z,7.10
2023-03-19T02:39:13.204Z,7.10
2023-03-19T02:41:43.683Z,7.10
2023-03-19T02:44:13.792Z,7.10
2023-03-19T02:46:43.207Z,7.10
2023-03-19T02:49:13.151Z,7.10
2023-03-19T02:51:42.575Z,7.20
2023-03-19T02:54:11.978Z,7.20
2023-03-19T02:56:41.358Z,7.20
2023-03-19T02:59:10.868Z,7.20
2023-03-19T03:01:40.915Z,7.20
2023-03-19T03:04:10.910Z,7.20
2023-03-19T03:06:40.628Z,7.30
2023-03-19T03:09:10.707Z,7.30
2023-03-19T03:11:41.625Z,7.30
2023-03-19T03:14:11.936Z,7.30
2023-03-19T03:16:42.479Z,7.40
2023-03-19T03:19:12.636Z,7.40
2023-03-19T03:21:43.412Z,7.40
2023-03-19T03:24:12.900Z,7.50
2023-03-19T03:26:42.432Z,7.50
2023-03-19T03:29:11.976Z,7.50
2023-03-19T03:31:43.058Z,7.60
2023-03-19T03:34:12.374Z,7.60
2023-03-19T03:36:41.768Z,7.60
2023-03-19T03:39:11.947Z,7.60
2023-03-19T03:41:41.568Z,7.70
2023-03-19T03:44:11.105Z,7.70
2023-03-19T03:46:43.328Z,7.70
2023-03-19T03:49:13.206Z,7.70
2023-03-19T03:51:42.588Z,7.70
2023-03-19T03:54:11.977Z,7.70
2023-03-19T03:56:41.486Z,7.80
2023-03-19T03:59:11.036Z,7.80
2023-03-19T04:01:40.656Z,7.80
2023-03-19T04:04:10.103Z,7.80
2023-03-19T04:06:39.623Z,7.80
2023-03-19T04:09:17.316Z,7.90
2023-03-19T04:11:46.957Z,7.90
2023-03-19T04:14:16.265Z,7.90
2023-03-19T04:16:46.632Z,7.90
2023-03-19T04:19:15.899Z,7.90
2023-03-19T04:21:45.539Z,8.00
2023-03-19T04:24:15.431Z,8.00
2023-03-19T04:26:46.255Z,8.00
2023-03-19T04:29:15.638Z,8.00
2023-03-19T04:31:45.826Z,8.00
2023-03-19T04:34:15.288Z,8.00
2023-03-19T04:36:45.084Z,8.00
2023-03-19T04:39:14.528Z,8.00
2023-03-19T04:41:45.108Z,8.00
2023-03-19T04:44:19.233Z,8.10
2023-03-19T04:46:48.672Z,8.10
2023-03-19T04:49:19.336Z,8.10
2023-03-19T04:51:49.084Z,8.10
2023-03-19T04:54:18.650Z,8.10
2023-03-19T04:56:47.999Z,8.10
2023-03-19T04:59:17.546Z,8.10
2023-03-19T05:01:47.122Z,8.10
2023-03-19T05:04:18.602Z,8.10
2023-03-19T05:06:48.238Z,8.20
2023-03-19T05:09:17.663Z,8.20
2023-03-19T05:11:47.171Z,8.20
2023-03-19T05:14:18.315Z,8.20
2023-03-19T05:16:58.511Z,8.20
2023-03-19T05:19:29.273Z,8.20
2023-03-19T05:21:58.837Z,8.10
2023-03-19T05:24:29.579Z,8.20
2023-03-19T05:26:59.308Z,8.20
2023-03-19T05:29:30.417Z,8.20
2023-03-19T05:32:13.907Z,8.20
2023-03-19T05:34:43.681Z,8.20
2023-03-19T05:37:13.768Z,8.20
2023-03-19T05:39:42.723Z,8.20
2023-03-19T05:42:12.159Z,8.20
2023-03-19T05:44:42.243Z,8.20
2023-03-19T05:47:13.359Z,8.20
2023-03-19T05:49:44.509Z,8.20
2023-03-19T05:52:14.002Z,8.20
2023-03-19T05:54:43.686Z,8.20
2023-03-19T05:57:15.120Z,8.20
2023-03-19T06:00:02.154Z,8.20
2023-03-19T06:02:33.864Z,8.10
2023-03-19T06:05:06.171Z,8.10
2023-03-19T06:07:35.711Z,8.10
2023-03-19T06:10:06.528Z,8.10
2023-03-19T06:12:36.280Z,8.10
2023-03-19T06:15:19.504Z,8.00
2023-03-19T06:17:50.982Z,8.10
2023-03-19T06:20:20.606Z,8.10
2023-03-19T06:22:49.956Z,8.10
2023-03-19T06:25:19.524Z,8.00
2023-03-19T06:27:48.985Z,8.00
2023-03-19T06:30:22.911Z,8.00
2023-03-19T06:32:52.506Z,8.10
2023-03-19T06:35:22.754Z,8.00
2023-03-19T06:37:53.057Z,8.00
2023-03-19T06:40:23.065Z,8.00
2023-03-19T06:42:53.008Z,8.00
2023-03-19T06:45:22.885Z,8.00
2023-03-19T06:47:53.611Z,8.10
2023-03-19T06:50:23.020Z,8.00
2023-03-19T06:52:52.325Z,8.10
2023-03-19T06:55:21.798Z,8.10
2023-03-19T06:57:51.750Z,8.10
2023-03-19T07:00:21.406Z,8.10
2023-03-19T07:02:50.742Z,8.20
2023-03-19T07:05:20.184Z,8.20
2023-03-19T07:07:49.565Z,8.20
2023-03-19T07:10:22.745Z,8.30
2023-03-19T07:12:52.171Z,8.30
2023-03-19T07:15:21.720Z,8.40
2023-03-19T07:17:51.014Z,8.40
2023-03-19T07:20:20.503Z,8.40
2023-03-19T07:22:52.173Z,8.40
2023-03-19T07:25:21.797Z,8.50
2023-03-19T07:27:51.700Z,8.50
2023-03-19T07:30:22.075Z,8.50
2023-03-19T07:32:51.610Z,8.60
2023-03-19T07:35:21.571Z,8.70
2023-03-19T07:37:51.067Z,8.70
2023-03-19T07:40:20.579Z,8.80
2023-03-19T07:42:49.924Z,8.90
2023-03-19T07:45:19.534Z,9.00
2023-03-19T07:47:51.566Z,9.00
2023-03-19T07:50:21.125Z,9.10
2023-03-19T07:52:53.973Z,9.20
2023-03-19T07:55:23.734Z,9.40
2023-03-19T07:57:53.230Z,9.50
2023-03-19T08:00:23.101Z,9.70
2023-03-19T08:02:52.585Z,9.80
2023-03-19T08:05:22.302Z,10.00
2023-03-19T08:07:51.740Z,10.20
2023-03-19T08:10:21.947Z,10.40
2023-03-19T08:12:51.415Z,10.50
2023-03-19T08:15:21.264Z,10.80
2023-03-19T08:17:50.862Z,10.90
2023-03-19T08:20:21.331Z,11.10
2023-03-19T08:22:50.943Z,11.30
2023-03-19T08:25:20.368Z,11.50
2023-03-19T08:27:50.705Z,11.70
2023-03-19T08:30:20.216Z,12.00
2023-03-19T08:32:50.484Z,12.20
2023-03-19T08:35:19.275Z,12.40
2023-03-19T08:37:48.679Z,12.50
2023-03-19T08:40:18.134Z,12.70
2023-03-19T08:42:47.716Z,12.90
2023-03-19T08:45:17.347Z,13.00
2023-03-19T08:47:46.780Z,13.20
2023-03-19T08:50:17.404Z,13.40
2023-03-19T08:52:47.045Z,13.50
2023-03-19T08:55:17.252Z,13.70
2023-03-19T08:57:46.907Z,13.90
2023-03-19T09:00:17.252Z,14.00
2023-03-19T09:02:46.637Z,14.20
2023-03-19T09:05:16.184Z,14.30
2023-03-19T09:07:45.704Z,14.50
2023-03-19T09:10:15.327Z,14.60
2023-03-19T09:12:45.458Z,14.70
2023-03-19T09:15:15.821Z,14.80
2023-03-19T09:17:45.520Z,14.90
2023-03-19T09:20:15.018Z,15.00
2023-03-19T09:22:44.390Z,15.00
2023-03-19T09:25:13.758Z,15.00
2023-03-19T09:27:43.123Z,15.00
2023-03-19T09:30:13.280Z,15.00
2023-03-19T09:32:42.800Z,15.00
2023-03-19T09:35:12.236Z,15.00
2023-03-19T09:37:41.717Z,15.10
2023-03-19T09:40:14.181Z,15.20
2023-03-19T09:43:12.528Z,15.20
2023-03-19T09:45:42.050Z,15.30
2023-03-19T09:48:18.260Z,15.40
2023-03-19T09:50:49.623Z,15.50
2023-03-19T09:53:37.866Z,15.60
2023-03-19T09:56:10.186Z,15.70
2023-03-19T09:58:39.985Z,15.80
2023-03-19T10:01:12.442Z,15.90
2023-03-19T10:04:18.101Z,15.90
2023-03-19T10:06:47.620Z,16.00
2023-03-19T10:09:44.267Z,16.10
2023-03-19T10:12:36.376Z,16.10
2023-03-19T10:15:20.795Z,16.20
2023-03-19T10:17:59.166Z,16.20
2023-03-19T10:20:41.082Z,16.20
2023-03-19T10:23:22.177Z,16.20
2023-03-19T10:25:55.395Z,16.30
2023-03-19T10:28:26.460Z,16.30
2023-03-19T10:31:15.455Z,16.30
2023-03-19T10:33:47.879Z,16.30
2023-03-19T10:36:20.181Z,16.30
2023-03-19T10:38:49.546Z,16.30
2023-03-19T10:41:36.858Z,16.40
2023-03-19T10:44:09.311Z,16.30
2023-03-19T10:46:42.034Z,16.40
2023-03-19T10:49:16.468Z,16.40
2023-03-19T10:51:47.483Z,16.40
2023-03-19T10:54:22.973Z,16.40
2023-03-19T10:56:54.823Z,16.40
2023-03-19T10:59:33.361Z,16.40
2023-03-19T11:02:05.787Z,16.40
2023-03-19T11:04:35.283Z,16.40
2023-03-19T11:07:13.436Z,16.40
2023-03-19T11:09:45.247Z,16.40
2023-03-19T11:12:26.194Z,16.40
2023-03-19T11:14:58.438Z,16.40
2023-03-19T11:17:31.485Z,16.40
2023-03-19T11:20:02.727Z,16.40
2023-03-19T11:22:37.593Z,16.50
2023-03-19T11:25:21.950Z,16.40
2023-03-19T11:28:00.980Z,16.40
2023-03-19T11:30:36.028Z,16.50
2023-03-19T11:33:23.431Z,16.40
2023-03-19T11:36:14.059Z,16.40
2023-03-19T11:39:16.922Z,16.40
2023-03-19T11:41:58.368Z,16.40
2023-03-19T11:44:30.751Z,16.40
2023-03-19T11:47:27.112Z,16.40
2023-03-19T11:50:01.336Z,16.40
2023-03-19T11:53:07.100Z,16.40
2023-03-19T11:55:51.182Z,16.40
2023-03-19T11:58:32.411Z,16.40
2023-03-19T12:01:16.669Z,16.40
2023-03-19T12:03:49.210Z,16.40
2023-03-19T12:06:30.415Z,16.30
2023-03-19T12:09:05.697Z,16.30
2023-03-19T12:11:54.753Z,16.30
2023-03-19T12:14:39.002Z,16.30
2023-03-19T12:17:17.503Z,16.20
2023-03-19T12:20:01.987Z,16.20
2023-03-19T12:22:50.517Z,16.20
2023-03-19T12:25:38.092Z,16.20
2023-03-19T12:28:20.057Z,16.20
2023-03-19T12:31:01.387Z,16.10
2023-03-19T12:33:48.638Z,16.10
2023-03-19T12:36:26.949Z,16.10
2023-03-19T12:39:02.304Z,16.10
2023-03-19T12:41:33.612Z,16.10
2023-03-19T12:44:08.814Z,16.10
2023-03-19T12:46:41.432Z,16.10
2023-03-19T12:49:26.259Z,16.10
2023-03-19T12:52:13.574Z,16.00
2023-03-19T12:54:46.324Z,16.10
2023-03-19T12:57:36.715Z,16.10
2023-03-19T13:00:06.820Z,16.20
2023-03-19T13:02:44.850Z,16.30
2023-03-19T13:05:29.233Z,16.30
2023-03-19T13:08:05.209Z,16.40
2023-03-19T13:10:34.854Z,16.40
2023-03-19T13:13:10.239Z,16.40
2023-03-19T13:15:42.637Z,16.40
2023-03-19T13:18:23.778Z,16.50
2023-03-19T13:21:18.539Z,16.50
2023-03-19T13:23:51.540Z,16.40
2023-03-19T13:26:21.012Z,16.40
2023-03-19T13:29:05.407Z,16.40
2023-03-19T13:31:38.935Z,16.40
2023-03-19T13:34:21.462Z,16.40
2023-03-19T13:37:14.956Z,16.40
2023-03-19T13:39:45.999Z,16.40
2023-03-19T13:42:40.873Z,16.50
2023-03-19T13:45:37.281Z,16.50
2023-03-19T13:48:30.545Z,16.50
2023-03-19T13:51:17.378Z,16.50
2023-03-19T13:54:08.474Z,16.50
2023-03-19T13:57:00.134Z,16.50
2023-03-19T13:59:41.042Z,16.50
2023-03-19T14:02:28.576Z,16.50
2023-03-19T14:05:04.094Z,16.40
2023-03-19T14:07:40.665Z,16.30
2023-03-19T14:10:20.260Z,16.30
2023-03-19T14:12:50.695Z,16.30
2023-03-19T14:15:23.722Z,16.20
2023-03-19T14:17:57.554Z,16.20
2023-03-19T14:20:37.093Z,16.20
2023-03-19T14:23:12.961Z,16.10
2023-03-19T14:26:12.788Z,16.10
2023-03-19T14:28:56.945Z,16.10
2023-03-19T14:31:42.380Z,16.10
2023-03-19T14:34:23.981Z,16.10
2023-03-19T14:37:11.189Z,16.00
2023-03-19T14:39:43.801Z,16.00
2023-03-19T14:42:19.030Z,16.00
2023-03-19T14:45:10.958Z,16.00
2023-03-19T14:47:50.585Z,16.00
2023-03-19T14:50:40.378Z,15.90
2023-03-19T14:53:21.548Z,15.90
2023-03-19T14:55:55.412Z,15.90
2023-03-19T14:58:24.991Z,15.90
2023-03-19T15:00:56.387Z,15.90
2023-03-19T15:03:31.577Z,15.80
2023-03-19T15:06:03.913Z,15.80
2023-03-19T15:08:36.682Z,15.80
2023-03-19T15:11:17.568Z,15.80
2023-03-19T15:14:12.951Z,15.80
2023-03-19T15:16:54.298Z,15.70
2023-03-19T15:37:43.775Z,15.20
2023-03-19T15:40:16.212Z,15.20
2023-03-19T16:01:55.761Z,14.90
2023-03-19T16:04:29.554Z,14.90
2023-03-19T16:07:01.420Z,14.90
2023-03-19T16:09:34.848Z,14.90
2023-03-19T16:12:04.630Z,14.90
2023-03-19T16:14:42.552Z,14.80
2023-03-19T16:17:16.735Z,14.80
2023-03-19T16:19:56.275Z,14.80
2023-03-19T16:22:28.366Z,14.80
2023-03-19T16:24:58.860Z,14.80
2023-03-19T16:27:40.262Z,14.80
2023-03-19T16:30:22.419Z,14.80
2023-03-19T16:33:06.719Z,14.80
2023-03-19T16:35:37.492Z,14.70
2023-03-19T16:38:28.344Z,14.70
2023-03-19T16:41:31.279Z,14.70
2023-03-19T16:44:03.731Z,14.60
2023-03-19T16:46:33.066Z,14.50
2023-03-19T16:49:02.558Z,14.50
2023-03-19T16:51:32.014Z,14.40
2023-03-19T16:54:01.644Z,14.30
2023-03-19T16:56:31.677Z,14.30
2023-03-19T16:59:03.936Z,14.30
2023-03-19T17:01:33.463Z,14.20
2023-03-19T17:04:05.667Z,14.10
2023-03-19T17:06:35.072Z,14.10
2023-03-19T17:09:04.501Z,14.00
2023-03-19T17:11:36.851Z,14.00
2023-03-19T17:14:07.514Z,13.90
2023-03-19T17:16:37.071Z,13.90
2023-03-19T17:19:09.501Z,13.80
2023-03-19T17:21:39.004Z,13.80
2023-03-19T17:24:26.535Z,13.80
2023-03-19T17:26:57.839Z,13.70
2023-03-19T17:29:27.274Z,13.70
2023-03-19T17:31:58.377Z,13.70
2023-03-19T17:34:31.525Z,13.60
2023-03-19T17:37:04.063Z,13.60
2023-03-19T17:39:34.113Z,13.50
2023-03-19T17:42:03.412Z,13.50
2023-03-19T17:44:32.799Z,13.50
2023-03-19T17:47:02.313Z,13.40
2023-03-19T17:49:32.687Z,13.40
2023-03-19T17:52:01.258Z,13.30
2023-03-19T17:54:30.740Z,13.30
2023-03-19T17:57:00.158Z,13.30
2023-03-19T17:59:29.491Z,13.30
2023-03-19T18:01:59.142Z,13.20
2023-03-19T18:04:28.471Z,13.20
2023-03-19T18:06:57.855Z,13.20
2023-03-19T18:09:28.506Z,13.20
2023-03-19T18:11:57.981Z,13.20
2023-03-19T18:14:27.511Z,13.10
2023-03-19T18:16:56.977Z,13.00
2023-03-19T18:19:31.930Z,13.00
2023-03-19T18:22:01.402Z,12.90
2023-03-19T18:24:30.895Z,12.80
2023-03-19T18:27:00.364Z,12.70
2023-03-19T18:29:29.771Z,12.60
2023-03-19T18:32:02.200Z,12.60
2023-03-19T18:34:31.908Z,12.50
2023-03-19T18:37:02.025Z,12.50
2023-03-19T18:39:33.176Z,12.40
2023-03-19T18:42:02.576Z,12.30
2023-03-19T18:44:32.109Z,12.30
2023-03-19T18:47:01.468Z,12.30
2023-03-19T18:49:31.015Z,12.20
2023-03-19T18:52:03.383Z,12.20
2023-03-19T18:54:32.419Z,12.10
2023-03-19T18:57:02.636Z,12.10
2023-03-19T18:59:34.460Z,12.10
2023-03-19T19:02:12.882Z,12.00
2023-03-19T19:04:42.382Z,12.00
2023-03-19T19:07:17.219Z,12.00
2023-03-19T19:09:46.569Z,12.00
2023-03-19T19:12:18.558Z,11.90
2023-03-19T19:14:48.716Z,11.90
2023-03-19T19:17:21.327Z,11.90
2023-03-19T19:19:50.966Z,11.80
2023-03-19T19:22:21.284Z,11.80
2023-03-19T19:24:50.632Z,11.80
2023-03-19T19:27:23.231Z,11.70
2023-03-19T19:29:53.104Z,11.70
2023-03-19T19:32:25.632Z,11.70
2023-03-19T19:34:55.243Z,11.60
2023-03-19T19:37:24.750Z,11.60
2023-03-19T19:39:54.346Z,11.60
2023-03-19T19:42:24.312Z,11.60
2023-03-19T19:44:58.384Z,11.50
2023-03-19T19:47:28.608Z,11.50
2023-03-19T19:49:58.080Z,11.50
2023-03-19T19:52:27.404Z,11.50
2023-03-19T19:54:56.796Z,11.50
2023-03-19T19:57:26.184Z,11.50
2023-03-19T19:59:56.202Z,11.50
2023-03-19T20:02:29.907Z,11.50
2023-03-19T20:04:59.876Z,11.50
2023-03-19T20:07:29.855Z,11.50
2023-03-19T20:09:59.279Z,11.50
2023-03-19T20:12:32.831Z,11.40
2023-03-19T20:15:02.600Z,11.40
2023-03-19T20:17:32.006Z,11.40
2023-03-19T20:20:01.333Z,11.40
2023-03-19T20:22:30.702Z,11.40
2023-03-19T20:25:00.221Z,11.30
2023-03-19T20:27:32.670Z,11.30
2023-03-19T20:30:02.319Z,11.30
2023-03-19T20:32:39.125Z,11.20
2023-03-19T20:35:11.563Z,11.20
2023-03-19T20:37:40.969Z,11.10
2023-03-19T20:40:11.519Z,11.00
2023-03-19T20:42:42.163Z,11.00
2023-03-19T20:45:17.913Z,10.90
2023-03-19T20:47:48.663Z,10.90
2023-03-19T20:50:21.080Z,10.80
2023-03-19T20:52:50.896Z,10.70
2023-03-19T20:55:22.945Z,10.70
2023-03-19T20:57:53.563Z,10.60
2023-03-19T21:00:29.158Z,10.50
2023-03-19T21:02:59.971Z,10.50
2023-03-19T21:05:32.566Z,10.40
2023-03-19T21:08:03.349Z,10.40
2023-03-19T21:10:35.656Z,10.30
2023-03-19T21:13:05.589Z,10.20
2023-03-19T21:15:35.154Z,10.20
2023-03-19T21:18:04.934Z,10.20
2023-03-19T21:20:35.462Z,10.20
2023-03-19T21:23:08.015Z,10.10
2023-03-19T21:25:37.612Z,10.10
2023-03-19T21:28:09.934Z,10.10
2023-03-19T21:30:44.485Z,10.10
2023-03-19T21:33:25.552Z,10.00
2023-03-19T21:35:55.920Z,10.00
2023-03-19T21:38:24.883Z,9.90
2023-03-19T21:40:59.864Z,9.90
2023-03-19T21:43:32.484Z,9.80
2023-03-19T21:46:13.883Z,9.80
2023-03-19T21:48:35.626Z,9.80
2023-03-19T21:51:05.625Z,9.80
2023-03-19T21:53:35.062Z,9.80
2023-03-19T21:56:04.555Z,9.80
2023-03-19T21:58:36.509Z,9.70
2023-03-19T22:01:08.221Z,9.70
2023-03-19T22:03:37.793Z,9.80
2023-03-19T22:06:07.807Z,9.70
2023-03-19T22:08:37.156Z,9.70
2023-03-19T22:11:09.595Z,9.70
2023-03-19T22:13:40.135Z,9.70
2023-03-19T22:16:15.196Z,9.70
2023-03-19T22:18:44.749Z,9.60
2023-03-19T22:21:19.064Z,9.60
2023-03-19T22:23:49.185Z,9.60
2023-03-19T22:26:37.203Z,9.60
2023-03-19T22:29:12.820Z,9.60
2023-03-19T22:31:42.563Z,9.60
2023-03-19T22:34:17.068Z,9.60
2023-03-19T22:36:47.076Z,9.60
2023-03-19T22:39:16.624Z,9.60
2023-03-19T22:41:48.164Z,9.60
2023-03-19T22:44:26.484Z,9.60
2023-03-19T22:46:57.749Z,9.60
2023-03-19T22:49:28.382Z,9.60
2023-03-19T22:51:58.410Z,9.60
2023-03-19T22:54:27.981Z,9.50
2023-03-19T22:56:57.269Z,9.40
2023-03-19T22:59:27.829Z,9.40
2023-03-19T23:01:58.080Z,9.40
2023-03-19T23:04:32.336Z,9.40
2023-03-19T23:07:02.324Z,9.30
2023-03-19T23:09:35.730Z,9.20
2023-03-19T23:12:07.152Z,9.20
2023-03-19T23:14:36.857Z,9.20
2023-03-19T23:17:09.281Z,9.10
2023-03-19T23:19:39.379Z,9.10
2023-03-19T23:22:14.250Z,9.00
2023-03-19T23:24:44.922Z,9.00
2023-03-19T23:27:26.060Z,8.90
2023-03-19T23:29:56.226Z,8.90
2023-03-19T23:32:26.492Z,8.80
2023-03-19T23:35:01.432Z,8.80
2023-03-19T23:37:27.267Z,8.80
2023-03-19T23:39:57.601Z,8.70
2023-03-19T23:42:30.245Z,8.70
2023-03-19T23:45:11.710Z,8.70
2023-03-19T23:47:41.553Z,8.70
2023-03-19T23:50:13.626Z,8.60
2023-03-19T23:52:43.098Z,8.60
2023-03-19T23:55:13.350Z,8.60
2023-03-19T23:57:42.831Z,8.50
